Terminal Aerodrome Forecast
Issued by NWS Jackson, KY

Home | Current Version | Previous Version | Text Only | Print | Product List | Glossary On
Versions: 1 2 3 4 5 6 7 8 9 10 11 12 13 14
000
FTUS43 KJKL 162341
TAFLOZ
TAF
KLOZ 162341Z 1700/1724 28010G17KT P6SM VCSH SCT030 OVC050
     FM170300 26005KT P6SM BKN045 OVC050
     FM171300 26010KT P6SM FEW040 SCT100=

USA.gov is the U.S. government's official web portal to all federal, state and local government web resources and services.